Time;durP1;ratioP1;P1;durP2;ratioP2;P2;SDS_P1;SDS_P2;PMS_P1;PMS_P2;Temp;Humidity;BMP_temperature;BMP_pressure;BME280_temperature;BME280_humidity;BME280_pressure;Samples;Min_cycle;Max_cycle;Signal;HPM_P1;HPM_P2
2022/08/01 00:00:39;;;;;;;3.85;2.58;;;;;;;21.51;48.79;94555.56;4178791;28;20097;-51
2022/08/01 00:02:40;;;;;;;3.15;2.65;;;;;;;21.50;48.61;94559.25;4177504;28;20126;-50
2022/08/01 00:04:42;;;;;;;4.90;2.20;;;;;;;21.52;48.43;94549.16;4178933;28;20053;-53
2022/08/01 00:06:44;;;;;;;2.90;2.30;;;;;;;21.53;47.95;94549.97;4187010;28;20114;-52
2022/08/01 00:08:45;;;;;;;2.85;2.53;;;;;;;21.56;48.08;94552.19;4176704;28;20075;-53
2022/08/01 00:10:47;;;;;;;4.10;2.45;;;;;;;21.53;47.94;94542.81;4186026;28;20443;-53
2022/08/01 00:12:49;;;;;;;3.35;2.17;;;;;;;21.55;48.03;94553.22;4178738;28;20060;-53
2022/08/01 00:14:51;;;;;;;5.68;2.53;;;;;;;21.57;48.04;94543.94;4177106;28;20059;-51
2022/08/01 00:16:52;;;;;;;5.18;2.38;;;;;;;21.59;47.91;94551.72;4177264;28;20049;-52
2022/08/01 00:18:55;;;;;;;2.75;2.10;;;;;;;21.59;47.76;94549.88;4166545;28;20737;-51
2022/08/01 00:20:56;;;;;;;4.20;2.22;;;;;;;21.53;48.13;94553.47;4177757;28;20037;-52
2022/08/01 00:22:58;;;;;;;3.50;2.40;;;;;;;21.53;47.86;94550.81;4177545;28;20049;-51
2022/08/01 00:25:00;;;;;;;4.43;2.20;;;;;;;21.52;48.10;94551.84;4177984;28;20478;-52
2022/08/01 00:27:02;;;;;;;2.78;1.92;;;;;;;21.51;47.93;94555.56;4177201;28;20048;-52
2022/08/01 00:29:04;;;;;;;5.53;2.65;;;;;;;21.46;48.14;94553.56;4179456;28;20097;-53
2022/08/01 00:31:12;;;;;;;3.08;2.15;;;;;;;21.41;48.34;94556.13;4186005;28;20377;-50
2022/08/01 00:33:13;;;;;;;6.28;2.38;;;;;;;21.42;48.04;94557.75;4192899;28;20129;-55
2022/08/01 00:35:16;;;;;;;4.65;2.33;;;;;;;21.38;48.14;94550.38;4181442;28;20056;-54
2022/08/01 00:37:18;;;;;;;3.60;2.17;;;;;;;21.37;48.17;94551.44;4174969;28;20056;-54
2022/08/01 00:39:19;;;;;;;4.88;2.65;;;;;;;21.22;48.70;94551.88;4176900;28;20091;-53
2022/08/01 00:41:21;;;;;;;5.47;2.70;;;;;;;20.80;49.97;94559.84;4177629;28;20549;-55
2022/08/01 00:43:23;;;;;;;3.20;2.47;;;;;;;20.40;51.47;94560.34;4177367;28;20052;-55
2022/08/01 00:45:24;;;;;;;3.90;2.85;;;;;;;20.16;52.48;94562.06;4180889;28;20147;-55
2022/08/01 00:47:28;;;;;;;4.45;2.90;;;;;;;20.14;52.89;94556.97;4191346;28;20121;-52
2022/08/01 00:49:29;;;;;;;4.25;2.92;;;;;;;20.10;53.11;94554.97;4178883;28;20048;-52
2022/08/01 00:51:31;;;;;;;4.20;2.92;;;;;;;20.18;52.79;94560.00;4192777;28;20170;-54
2022/08/01 00:53:34;;;;;;;7.93;3.15;;;;;;;20.28;52.76;94554.94;4190318;28;20806;-50
2022/08/01 00:55:53;;;;;;;4.15;3.17;;;;;;;20.36;51.81;94554.66;4192016;28;20070;-53
2022/08/01 00:57:55;;;;;;;3.63;2.50;;;;;;;20.49;51.18;94550.22;4189141;28;20065;-53
2022/08/01 01:00:07;;;;;;;3.55;2.58;;;;;;;20.56;50.76;94549.06;4181555;28;20052;-53
2022/08/01 01:02:09;;;;;;;5.28;2.50;;;;;;;20.57;50.89;94542.75;4175618;28;20056;-54
2022/08/01 01:04:17;;;;;;;4.78;3.28;;;;;;;19.79;54.47;94549.56;4174166;28;20088;-52
2022/08/01 01:06:21;;;;;;;9.43;3.37;;;;;;;19.81;54.59;94542.19;4177834;28;20121;-53
2022/08/01 01:08:29;;;;;;;4.72;3.55;;;;;;;19.68;55.49;94541.44;4176077;28;20059;-54
2022/08/01 01:10:48;;;;;;;4.25;2.70;;;;;;;19.80;54.15;94532.56;4177505;28;20459;-55
2022/08/01 01:12:56;;;;;;;6.38;3.22;;;;;;;19.90;53.85;94532.06;4171571;28;20116;-52
2022/08/01 01:15:03;;;;;;;3.90;2.47;;;;;;;19.98;53.13;94531.78;4160531;28;20075;-54
2022/08/01 01:17:07;;;;;;;4.20;2.38;;;;;;;19.99;52.69;94538.72;4160997;28;20057;-54
2022/08/01 01:19:13;;;;;;;4.28;2.47;;;;;;;20.06;52.67;94533.31;4158498;28;20149;-54
2022/08/01 01:21:18;;;;;;;3.78;2.35;;;;;;;20.11;52.05;94535.31;4158680;28;20497;-55
2022/08/01 01:23:44;;;;;;;3.25;2.40;;;;;;;20.17;51.40;94531.75;4156374;28;20045;-54
2022/08/01 01:26:11;;;;;;;4.43;2.42;;;;;;;20.25;50.93;94524.28;4147621;28;20075;-53
2022/08/01 01:28:51;;;;;;;2.83;2.00;;;;;;;20.30;50.25;94520.97;4160545;28;20049;-53
2022/08/01 01:30:55;;;;;;;5.22;2.20;;;;;;;20.32;49.86;94520.75;4161788;28;20059;-52
2022/08/01 01:32:58;;;;;;;;;;;;;;;20.39;49.42;94516.97;4149756;28;20135;-53
2022/08/01 01:35:05;;;;;;;3.97;2.00;;;;;;;20.41;48.98;94520.22;4187928;28;19925;-55
2022/08/01 01:37:09;;;;;;;4.65;2.15;;;;;;;20.38;49.03;94512.69;4159266;28;20058;-54
2022/08/01 01:39:11;;;;;;;4.93;2.25;;;;;;;20.34;48.56;94508.84;4180457;28;20057;-53
2022/08/01 01:41:15;;;;;;;2.75;2.13;;;;;;;20.42;48.82;94507.72;4170597;28;20064;-54
2022/08/01 01:43:18;;;;;;;4.25;1.90;;;;;;;20.46;48.36;94504.38;4160457;28;20413;-53
2022/08/01 01:45:20;;;;;;;3.22;2.00;;;;;;;20.45;47.56;94502.75;4169692;28;20057;-53
2022/08/01 01:47:23;;;;;;;3.40;1.80;;;;;;;20.51;47.45;94501.06;4184394;28;20125;-51
2022/08/01 01:49:26;;;;;;;4.10;1.92;;;;;;;20.50;47.60;94495.94;4197988;28;20045;-52
2022/08/01 01:51:29;;;;;;;3.85;1.65;;;;;;;20.53;47.01;94496.31;4153572;28;20051;-50
2022/08/01 01:53:33;;;;;;;2.33;1.90;;;;;;;20.54;46.53;94497.13;4167128;28;20053;-53
2022/08/01 01:55:37;;;;;;;3.83;1.88;;;;;;;20.55;46.47;94498.75;4175405;28;20797;-53
2022/08/01 01:57:51;;;;;;;5.00;1.92;;;;;;;20.54;45.57;94495.28;4185693;28;20068;-54
2022/08/01 01:59:54;;;;;;;4.70;1.75;;;;;;;20.59;44.98;94495.44;4172993;28;20048;-53
2022/08/01 02:01:58;;;;;;;10.00;1.90;;;;;;;20.66;44.64;94490.03;4164449;28;20152;-51
2022/08/01 02:04:06;;;;;;;2.88;1.60;;;;;;;20.72;44.46;94488.31;4156518;28;20684;-52
2022/08/01 02:06:08;;;;;;;5.35;1.90;;;;;;;20.77;43.41;94486.59;4174649;28;20104;-51
2022/08/01 02:08:12;;;;;;;3.25;1.77;;;;;;;20.81;43.67;94489.63;4158974;28;20482;-51
2022/08/01 02:10:15;;;;;;;10.23;1.88;;;;;;;20.81;43.69;94487.75;4158272;28;20119;-52
2022/08/01 02:12:18;;;;;;;4.50;1.65;;;;;;;20.75;43.87;94488.66;4162025;28;20072;-52
2022/08/01 02:14:21;;;;;;;3.58;1.88;;;;;;;20.71;43.95;94479.50;4175988;28;20130;-52
2022/08/01 02:16:24;;;;;;;4.00;1.90;;;;;;;20.64;44.13;94484.94;4160243;28;20099;-53
2022/08/01 02:18:27;;;;;;;2.78;2.00;;;;;;;20.67;43.94;94483.66;4180995;28;20053;-54
2022/08/01 02:20:30;;;;;;;4.65;1.70;;;;;;;20.62;43.71;94483.53;4160870;28;20041;-53
2022/08/01 02:22:42;;;;;;;4.60;1.83;;;;;;;20.59;44.56;94484.81;4175632;28;20041;-53
2022/08/01 02:25:04;;;;;;;4.63;1.95;;;;;;;20.55;44.51;94488.13;4179859;28;20048;-53
2022/08/01 02:27:09;;;;;;;5.43;1.70;;;;;;;20.49;44.18;94484.50;4168773;28;20049;-54
2022/08/01 02:29:14;;;;;;;2.28;1.40;;;;;;;20.46;44.10;94479.63;4179279;28;20056;-49
2022/08/01 02:31:20;;;;;;;3.80;2.03;;;;;;;20.44;43.97;94482.50;4177768;28;20122;-50
2022/08/01 02:33:26;;;;;;;5.32;2.00;;;;;;;20.40;44.13;94481.34;4180064;28;20049;-52
2022/08/01 02:35:30;;;;;;;1.92;1.42;;;;;;;20.44;43.42;94476.41;4162367;28;20123;-55
2022/08/01 02:37:34;;;;;;;5.88;1.73;;;;;;;20.44;43.45;94482.50;4162059;28;20140;-53
2022/08/01 02:39:36;;;;;;;4.88;1.80;;;;;;;20.38;43.49;94480.75;4181043;28;20049;-53
2022/08/01 02:41:42;;;;;;;3.35;1.70;;;;;;;20.37;43.68;94491.59;4179033;28;20147;-51
2022/08/01 02:43:48;;;;;;;2.08;1.58;;;;;;;20.36;43.92;94484.69;4171510;28;20064;-54
2022/08/01 02:45:56;;;;;;;5.03;1.60;;;;;;;20.33;43.54;94485.94;4180408;28;20190;-53
2022/08/01 02:48:04;;;;;;;3.97;1.73;;;;;;;20.25;43.78;94483.59;4173526;28;20083;-56
2022/08/01 02:50:07;;;;;;;4.50;1.73;;;;;;;20.25;43.85;94475.63;4172955;28;20048;-53
2022/08/01 02:52:12;;;;;;;2.95;1.60;;;;;;;20.24;44.00;94472.16;4181572;28;20059;-54
2022/08/01 02:54:15;;;;;;;4.55;1.80;;;;;;;20.27;43.81;94476.19;4182385;28;20052;-54
2022/08/01 02:56:17;;;;;;;3.50;2.00;;;;;;;20.26;43.89;94474.56;4188083;28;20056;-51
2022/08/01 02:58:19;;;;;;;4.88;1.63;;;;;;;20.25;43.85;94473.75;4186494;28;20049;-52
2022/08/01 03:00:30;;;;;;;7.40;2.15;;;;;;;20.11;44.17;94472.31;4180498;28;20092;-51
2022/08/01 03:02:32;;;;;;;5.18;1.80;;;;;;;19.79;45.28;94480.47;4177334;28;20053;-51
2022/08/01 03:04:35;;;;;;;5.10;2.40;;;;;;;19.58;46.01;94486.97;4174676;28;20052;-52
2022/08/01 03:06:38;;;;;;;5.63;1.75;;;;;;;19.40;46.65;94479.81;4159473;28;20041;-51
2022/08/01 03:08:42;;;;;;;5.22;2.20;;;;;;;19.32;47.01;94484.59;4161763;28;20049;-53
2022/08/01 03:10:45;;;;;;;7.45;2.50;;;;;;;19.33;47.69;94478.22;4161253;28;20506;-54
2022/08/01 03:12:49;;;;;;;10.13;2.30;;;;;;;19.30;47.97;94476.81;4174704;28;20091;-54
2022/08/01 03:14:51;;;;;;;4.97;2.10;;;;;;;19.29;48.82;94477.03;4181067;28;20040;-53
2022/08/01 03:16:55;;;;;;;3.40;2.28;;;;;;;19.19;49.26;94478.34;4172241;28;20052;-54
2022/08/01 03:18:57;;;;;;;3.38;2.30;;;;;;;19.19;48.61;94486.31;4184535;28;20063;-54
2022/08/01 03:20:59;;;;;;;4.72;2.70;;;;;;;19.15;49.16;94489.63;4178270;28;20071;-52
2022/08/01 03:23:08;;;;;;;5.30;2.60;;;;;;;19.13;49.92;94481.88;4183489;28;20072;-51
2022/08/01 03:25:11;;;;;;;4.32;2.47;;;;;;;19.05;50.28;94484.00;4178231;28;20081;-50
2022/08/01 03:27:14;;;;;;;3.90;2.38;;;;;;;19.04;50.52;94480.53;4179155;28;20433;-53
2022/08/01 03:29:19;;;;;;;5.28;2.60;;;;;;;19.08;50.88;94480.88;4172600;28;20100;-46
2022/08/01 03:31:21;;;;;;;5.20;2.60;;;;;;;19.14;50.98;94495.94;4177142;28;20049;-51
2022/08/01 03:33:23;;;;;;;12.85;2.70;;;;;;;19.07;50.48;94488.03;4162871;28;20493;-50
2022/08/01 03:35:30;;;;;;;4.22;2.70;;;;;;;19.00;50.36;94495.25;4182719;28;20148;-52
2022/08/01 03:37:44;;;;;;;4.07;2.80;;;;;;;18.99;50.57;94493.63;4161475;28;20843;-51
2022/08/01 03:40:10;;;;;;;6.20;2.83;;;;;;;19.07;50.86;94484.59;4171493;28;20076;-51
2022/08/01 03:42:15;;;;;;;3.72;2.63;;;;;;;19.20;50.52;94490.59;4160142;28;20052;-50
2022/08/01 03:44:20;;;;;;;8.52;2.88;;;;;;;19.37;49.63;94490.03;4163166;28;20409;-51
2022/08/01 03:46:30;;;;;;;6.07;2.80;;;;;;;19.53;48.90;94484.19;4188270;28;20397;-48
2022/08/01 03:48:34;;;;;;;5.97;2.42;;;;;;;19.68;48.15;94483.81;4168153;28;20057;-52
2022/08/01 03:50:39;;;;;;;3.60;2.60;;;;;;;19.81;47.82;94488.19;4164770;28;20103;-48
2022/08/01 03:52:42;;;;;;;7.45;2.88;;;;;;;19.92;47.35;94490.13;4178452;28;20551;-52
2022/08/01 03:54:47;;;;;;;5.45;2.50;;;;;;;20.01;46.97;94477.34;4189357;28;20049;-52
2022/08/01 03:56:51;;;;;;;4.57;2.40;;;;;;;20.13;46.45;94488.84;4176183;28;20111;-56
2022/08/01 03:58:53;;;;;;;3.72;2.20;;;;;;;20.19;45.26;94479.16;4187829;28;20153;-50
2022/08/01 04:00:55;;;;;;;2.28;1.85;;;;;;;20.21;45.12;94480.56;4175746;28;20563;-53
2022/08/01 04:02:58;;;;;;;10.98;2.63;;;;;;;20.30;44.74;94478.41;4180450;28;20051;-52
2022/08/01 04:05:00;;;;;;;3.05;2.08;;;;;;;20.39;44.41;94484.22;4178618;28;20053;-49
2022/08/01 04:07:06;;;;;;;3.97;2.08;;;;;;;20.43;44.73;94483.56;4176590;28;20048;-52
2022/08/01 04:09:08;;;;;;;3.63;2.13;;;;;;;20.45;44.33;94486.78;4183261;28;20059;-53
2022/08/01 04:11:14;;;;;;;5.70;2.65;;;;;;;20.24;46.89;94497.91;4181897;28;20087;-49
2022/08/01 04:13:15;;;;;;;6.70;3.25;;;;;;;19.89;49.88;94497.72;4173358;28;20130;-53
2022/08/01 04:15:17;;;;;;;8.27;3.75;;;;;;;19.23;52.46;94497.31;4178093;28;20052;-51
2022/08/01 04:17:19;;;;;;;8.05;3.65;;;;;;;18.87;53.95;94498.03;4176706;28;20106;-51
2022/08/01 04:19:21;;;;;;;5.68;3.42;;;;;;;18.86;54.45;94491.88;4182253;28;20129;-51
2022/08/01 04:21:27;;;;;;;10.02;4.07;;;;;;;18.83;54.54;94502.94;4181093;28;20056;-49
2022/08/01 04:23:31;;;;;;;6.60;3.58;;;;;;;18.80;54.85;94506.84;4179423;28;20152;-49
2022/08/01 04:25:34;;;;;;;7.00;3.67;;;;;;;18.79;54.37;94505.19;4160095;28;20065;-52
2022/08/01 04:27:42;;;;;;;6.97;4.00;;;;;;;18.85;54.26;94505.38;4181123;28;20044;-51
2022/08/01 04:29:52;;;;;;;6.75;3.10;;;;;;;19.05;51.27;94503.38;4180895;28;20094;-51
2022/08/01 04:31:56;;;;;;;5.10;3.70;;;;;;;19.30;52.58;94499.91;4178747;28;20064;-49
2022/08/01 04:33:58;;;;;;;;;;;;;;;19.53;51.11;94496.63;4158119;28;20046;-49
2022/08/01 04:36:00;;;;;;;4.93;3.38;;;;;;;19.60;49.68;94495.53;4175207;28;19924;-48
2022/08/01 04:38:06;;;;;;;9.50;3.40;;;;;;;19.66;48.88;94499.19;4170903;28;20059;-55
2022/08/01 04:40:08;;;;;;;8.57;3.90;;;;;;;19.71;49.54;94499.34;4169008;28;20053;-54
2022/08/01 04:42:11;;;;;;;5.25;3.22;;;;;;;19.88;49.70;94496.91;4172922;28;20100;-48
2022/08/01 04:44:13;;;;;;;9.05;3.83;;;;;;;19.91;50.18;94503.63;4168870;28;20048;-53
2022/08/01 04:46:15;;;;;;;6.63;4.45;;;;;;;19.65;52.13;94505.50;4185802;28;20056;-51
2022/08/01 04:48:20;;;;;;;11.50;4.50;;;;;;;19.46;53.57;94501.19;4174495;28;20049;-53
2022/08/01 04:50:24;;;;;;;10.93;5.97;;;;;;;19.32;54.39;94500.53;4177060;28;20049;-49
2022/08/01 04:52:36;;;;;;;7.85;5.13;;;;;;;19.36;54.27;94507.00;4175720;28;20052;-52
2022/08/01 04:54:37;;;;;;;12.43;5.57;;;;;;;19.29;53.85;94507.06;4179108;28;20107;-50
2022/08/01 04:56:39;;;;;;;7.50;5.20;;;;;;;19.41;53.93;94499.19;4183546;28;20049;-53
2022/08/01 04:58:42;;;;;;;13.52;5.88;;;;;;;19.39;53.69;94509.22;4169336;28;20584;-51
2022/08/01 05:00:43;;;;;;;10.45;5.60;;;;;;;19.19;53.94;94510.22;4169989;28;20178;-51
2022/08/01 05:02:46;;;;;;;8.40;5.45;;;;;;;19.14;54.32;94509.22;4175846;28;20106;-51
2022/08/01 05:04:48;;;;;;;6.78;5.32;;;;;;;19.16;53.42;94500.00;4172211;28;20114;-50
2022/08/01 05:06:50;;;;;;;8.32;5.13;;;;;;;19.21;53.62;94499.38;4174370;28;20074;-53
2022/08/01 05:08:52;;;;;;;14.13;6.30;;;;;;;19.32;53.88;94500.53;4170996;28;20053;-55
2022/08/01 05:10:53;;;;;;;10.68;6.35;;;;;;;19.43;53.75;94497.94;4183182;28;20068;-54
2022/08/01 05:12:55;;;;;;;8.15;5.53;;;;;;;19.22;54.89;94490.38;4176018;28;20122;-50
2022/08/01 05:14:58;;;;;;;9.60;6.60;;;;;;;19.18;55.40;94497.16;4171673;28;20049;-53
2022/08/01 05:17:04;;;;;;;8.02;5.60;;;;;;;19.28;54.55;94501.97;4178066;28;20045;-50
2022/08/01 05:19:07;;;;;;;8.25;6.10;;;;;;;19.46;54.20;94501.19;4158324;28;20050;-51
2022/08/01 05:21:09;;;;;;;12.32;6.47;;;;;;;19.56;53.54;94497.00;4176150;28;20052;-51
2022/08/01 05:23:12;;;;;;;12.98;6.50;;;;;;;19.65;53.09;94494.88;4175624;28;20057;-51
2022/08/01 05:25:33;;;;;;;9.43;5.80;;;;;;;19.80;52.12;94498.00;4182959;28;20142;-52
2022/08/01 05:27:54;;;;;;;14.57;5.05;;;;;;;19.94;52.40;94497.88;4166608;28;20052;-51
2022/08/01 05:29:56;;;;;;;9.98;5.32;;;;;;;19.82;52.63;94498.59;4176340;28;20480;-53
2022/08/01 05:31:59;;;;;;;13.50;5.40;;;;;;;19.71;53.38;94482.59;4176210;28;20071;-52
2022/08/01 05:34:01;;;;;;;11.20;5.70;;;;;;;19.77;53.61;94498.47;4175723;28;20049;-52
2022/08/01 05:36:03;;;;;;;11.45;5.53;;;;;;;20.04;53.00;94492.84;4176497;28;20198;-54
2022/08/01 05:38:05;;;;;;;9.10;4.32;;;;;;;20.28;51.63;94485.78;4174956;28;20126;-54
2022/08/01 05:40:14;;;;;;;6.90;3.70;;;;;;;20.49;49.43;94489.00;4176383;28;20057;-54
2022/08/01 05:42:16;;;;;;;8.25;3.58;;;;;;;20.64;48.79;94492.09;4176099;28;20049;-52
2022/08/01 05:44:17;;;;;;;9.07;3.50;;;;;;;20.81;47.85;94493.09;4175356;28;20045;-56
2022/08/01 05:46:38;;;;;;;6.38;3.20;;;;;;;20.82;46.16;94492.06;4173768;28;20048;-50
2022/08/01 05:48:40;;;;;;;3.45;2.20;;;;;;;21.09;44.49;94494.31;4163093;28;20098;-51
2022/08/01 05:50:42;;;;;;;3.63;2.65;;;;;;;21.34;45.05;94494.09;4170292;28;20134;-50
2022/08/01 05:52:44;;;;;;;5.63;2.85;;;;;;;21.32;45.29;94498.06;4171971;28;20132;-49
2022/08/01 05:54:46;;;;;;;7.55;2.85;;;;;;;21.44;45.30;94510.34;4174460;28;20547;-53
2022/08/01 05:56:47;;;;;;;5.22;2.33;;;;;;;21.53;44.03;94491.34;4176116;28;20756;-50
2022/08/01 05:58:51;;;;;;;;;;;;;;;21.63;43.18;94495.03;4187196;28;20053;-53
2022/08/01 06:00:53;;;;;;;4.53;2.38;;;;;;;21.82;43.36;94497.59;4175204;28;20242;-54
2022/08/01 06:02:55;;;;;;;4.70;2.00;;;;;;;21.91;44.15;94506.06;4174829;28;20450;-51
2022/08/01 06:04:56;;;;;;;3.55;2.28;;;;;;;21.77;41.49;94492.97;4178764;28;20053;-50
2022/08/01 06:06:58;;;;;;;3.08;2.03;;;;;;;21.99;41.27;94495.81;4180403;28;20057;-54
2022/08/01 06:09:00;;;;;;;4.93;2.20;;;;;;;22.11;41.74;94500.31;4162041;28;20120;-54
2022/08/01 06:11:02;;;;;;;7.15;2.30;;;;;;;22.23;40.71;94501.16;4188001;28;20424;-52
2022/08/01 06:13:03;;;;;;;6.35;2.28;;;;;;;22.26;40.68;94501.50;4173608;28;20069;-53
2022/08/01 06:15:06;;;;;;;5.82;1.95;;;;;;;22.19;40.76;94505.28;4174398;28;20048;-49
2022/08/01 06:17:08;;;;;;;3.72;2.22;;;;;;;22.20;40.29;94509.56;4178680;28;20199;-52
2022/08/01 06:19:10;;;;;;;3.58;2.10;;;;;;;22.18;40.48;94512.50;4187526;28;20428;-51
2022/08/01 06:21:11;;;;;;;4.85;2.20;;;;;;;22.07;40.44;94506.13;4190140;28;20065;-54
2022/08/01 06:23:15;;;;;;;3.17;2.15;;;;;;;21.97;40.78;94503.25;4176747;28;20061;-51
2022/08/01 06:25:33;;;;;;;3.45;2.35;;;;;;;21.75;41.43;94513.72;4171875;28;20493;-51
2022/08/01 06:27:35;;;;;;;4.93;2.10;;;;;;;21.78;41.15;94509.78;4178390;28;20057;-50
2022/08/01 06:31:57;;;;;;;3.92;2.05;;;;;;;21.62;41.76;94509.44;4186314;28;20102;-52
2022/08/01 06:33:59;;;;;;;5.50;2.17;;;;;;;21.76;41.60;94509.19;4177639;28;20115;-55
2022/08/01 06:36:00;;;;;;;5.07;2.50;;;;;;;21.94;41.14;94501.06;4175669;28;20079;-53
2022/08/01 06:38:02;;;;;;;2.53;2.08;;;;;;;22.18;41.96;94498.34;4178690;28;20049;-52
2022/08/01 06:40:06;;;;;;;3.40;1.95;;;;;;;22.47;40.58;94492.00;4172804;28;20056;-49
2022/08/01 06:42:09;;;;;;;;;;;;;;;22.33;40.79;94514.69;4180475;28;20044;-49
2022/08/01 06:44:10;;;;;;;5.35;2.22;;;;;;;22.22;41.07;94502.16;4170491;28;19930;-51
2022/08/01 06:46:12;;;;;;;4.10;2.30;;;;;;;22.26;41.03;94488.16;4175968;28;20584;-50
2022/08/01 06:48:14;;;;;;;4.13;2.35;;;;;;;22.31;41.03;94489.28;4171531;28;20114;-49
2022/08/01 06:50:15;;;;;;;7.50;2.60;;;;;;;22.32;40.99;94497.03;4170156;28;20057;-50
2022/08/01 06:52:17;;;;;;;7.60;2.80;;;;;;;22.05;41.32;94497.56;4168693;28;20041;-52
2022/08/01 06:54:19;;;;;;;5.68;2.42;;;;;;;21.99;41.98;94508.34;4174542;28;20433;-52
2022/08/01 06:56:21;;;;;;;4.57;1.95;;;;;;;22.06;41.83;94504.50;4175240;28;20049;-50
2022/08/01 06:58:22;;;;;;;8.70;2.60;;;;;;;22.21;41.55;94481.84;4178648;28;20049;-52
2022/08/01 07:00:32;;;;;;;4.85;2.40;;;;;;;22.35;41.70;94482.41;4167664;28;20045;-51
2022/08/01 07:02:34;;;;;;;4.13;2.33;;;;;;;22.51;41.40;94472.84;4173803;28;20476;-52
2022/08/01 07:04:35;;;;;;;3.10;2.25;;;;;;;22.53;41.43;94476.09;4166591;28;20065;-49
2022/08/01 07:06:37;;;;;;;3.78;2.50;;;;;;;22.66;41.04;94475.81;4180240;28;20053;-52
2022/08/01 07:08:39;;;;;;;3.35;2.40;;;;;;;22.81;41.13;94478.72;4166219;28;20167;-53
2022/08/01 07:10:40;;;;;;;3.40;2.20;;;;;;;22.80;41.05;94481.63;4174655;28;20114;-52
2022/08/01 07:12:42;;;;;;;3.67;2.30;;;;;;;22.91;41.03;94478.13;4176635;28;20136;-52
2022/08/01 07:14:44;;;;;;;4.50;2.40;;;;;;;22.91;41.42;94478.13;4177213;28;20045;-52
2022/08/01 07:16:46;;;;;;;4.43;2.40;;;;;;;22.99;41.10;94485.72;4178863;28;20355;-52
2022/08/01 07:18:47;;;;;;;3.95;2.50;;;;;;;23.14;41.12;94477.16;4187047;28;20048;-54
2022/08/01 07:20:49;;;;;;;5.20;2.67;;;;;;;22.98;41.43;94478.75;4183339;28;20052;-52
2022/08/01 07:22:53;;;;;;;4.38;2.75;;;;;;;22.98;41.65;94488.66;4178393;28;20111;-51
2022/08/01 07:24:57;;;;;;;3.97;2.17;;;;;;;22.99;41.48;94485.72;4188920;28;20113;-52
2022/08/01 07:26:58;;;;;;;3.88;2.03;;;;;;;23.17;41.08;94482.03;4183470;28;20166;-52
2022/08/01 07:29:22;;;;;;;6.30;2.30;;;;;;;23.13;40.63;94486.25;4178168;28;20111;-54
2022/08/01 07:31:31;;;;;;;;;;;;;;;23.08;40.63;94486.16;4106836;28;9999979;-53
2022/08/01 07:33:33;;;;;;;4.18;2.97;;;;;;;22.82;41.01;94498.22;3825259;28;10000447;-54
2022/08/01 07:35:49;;;;;;;5.75;2.88;;;;;;;22.79;41.76;94483.50;4178226;28;20059;-53
2022/08/01 07:37:52;;;;;;;8.25;3.33;;;;;;;22.79;41.46;94496.06;4176773;28;20604;-53
2022/08/01 07:39:54;;;;;;;3.92;2.60;;;;;;;22.98;40.83;94476.09;4176550;28;20118;-52
2022/08/01 07:41:57;;;;;;;9.77;3.50;;;;;;;22.78;41.11;94489.06;4177408;28;20033;-55
2022/08/01 07:44:08;;;;;;;8.30;3.42;;;;;;;22.69;41.46;94480.66;4180567;28;20148;-54
2022/08/01 07:46:09;;;;;;;5.35;2.83;;;;;;;22.64;41.39;94494.72;4177575;28;20398;-58
2022/08/01 07:48:11;;;;;;;4.18;2.72;;;;;;;22.84;40.94;94499.63;4177590;28;20118;-51
2022/08/01 07:50:13;;;;;;;3.22;2.13;;;;;;;22.78;41.10;94503.25;3478766;28;10000437;-52
2022/08/01 07:52:15;;;;;;;4.10;2.20;;;;;;;22.92;41.26;94497.63;4174314;28;20060;-56
2022/08/01 07:54:17;;;;;;;4.10;2.72;;;;;;;23.17;40.83;94481.25;4176769;28;20056;-57
2022/08/01 07:56:20;;;;;;;4.63;2.72;;;;;;;23.31;40.86;94491.34;4177049;28;20049;-54
2022/08/01 07:58:21;;;;;;;4.80;2.60;;;;;;;23.49;40.98;94489.50;4180908;28;20045;-53
2022/08/01 08:00:23;;;;;;;9.35;2.50;;;;;;;23.77;39.99;94493.94;4183084;28;20122;-55
2022/08/01 08:02:25;;;;;;;5.22;2.83;;;;;;;23.88;39.71;94494.88;3836979;28;10000380;-53
2022/08/01 08:04:27;;;;;;;5.90;2.65;;;;;;;24.04;39.51;94490.53;4175684;28;20053;-50
2022/08/01 08:06:29;;;;;;;5.85;3.58;;;;;;;23.60;39.88;94511.84;4177834;28;20056;-54
2022/08/01 08:08:31;;;;;;;4.07;2.65;;;;;;;23.39;39.92;94495.47;4171153;28;20456;-55
2022/08/01 08:10:33;;;;;;;5.70;2.50;;;;;;;23.52;40.18;94489.00;4173830;28;20045;-54
2022/08/01 08:12:35;;;;;;;4.88;2.60;;;;;;;23.58;40.38;94495.25;3826748;28;10000414;-51
2022/08/01 08:14:58;;;;;;;5.50;2.94;;;;;;;23.68;40.02;94500.72;4147150;28;10001279;-53
2022/08/01 08:16:59;;;;;;;;;;;;;;;23.19;40.26;94489.78;4177997;28;21090;-52
2022/08/01 08:19:03;;;;;;;14.52;3.58;;;;;;;23.47;40.13;94492.41;4176177;28;19932;-50
2022/08/01 08:21:04;;;;;;;8.52;3.00;;;;;;;23.27;39.75;94487.56;4179589;28;20119;-51
2022/08/01 08:24:19;;;;;;;4.93;3.10;;;;;;;23.15;39.49;94484.16;4145734;28;20070;-51
2022/08/01 08:25:44;;;;;;;5.22;3.55;;;;;;;23.15;40.29;94484.16;4173936;28;20084;-50
2022/08/01 08:27:46;;;;;;;6.47;2.22;;;;;;;23.33;40.35;94484.97;4175339;28;20353;-53
2022/08/01 08:29:48;;;;;;;7.45;3.55;;;;;;;23.27;40.49;94482.22;4176239;28;20315;-51
2022/08/01 08:31:50;;;;;;;4.25;2.40;;;;;;;23.45;40.56;94488.34;4175549;28;20060;-52
2022/08/01 08:33:54;;;;;;;7.18;2.75;;;;;;;23.46;40.34;94481.94;4175527;28;20153;-54
2022/08/01 08:35:55;;;;;;;5.00;3.80;;;;;;;22.96;40.07;94512.13;4175235;28;20069;-51
2022/08/01 08:37:57;;;;;;;7.85;2.95;;;;;;;22.72;40.67;94485.53;4168771;28;20049;-52
2022/08/01 08:40:00;;;;;;;5.63;2.67;;;;;;;22.89;40.36;94480.22;4171847;28;20045;-54
2022/08/01 08:42:06;;;;;;;4.22;2.78;;;;;;;23.20;40.41;94489.56;4175708;28;20045;-54
2022/08/01 08:44:09;;;;;;;3.75;2.15;;;;;;;23.44;39.96;94484.06;4171700;28;20051;-50
2022/08/01 08:46:13;;;;;;;6.55;2.50;;;;;;;23.62;39.36;94489.16;4166316;28;20144;-54
2022/08/01 08:48:15;;;;;;;4.55;2.30;;;;;;;23.72;38.89;94472.41;4174448;28;20053;-53
2022/08/01 08:50:19;;;;;;;5.25;2.33;;;;;;;23.65;38.34;94485.16;4157333;28;20077;-52
2022/08/01 08:52:22;;;;;;;6.95;2.30;;;;;;;23.64;38.07;94484.38;4172884;28;20044;-52
2022/08/01 08:54:24;;;;;;;4.10;2.22;;;;;;;23.63;38.69;94473.91;4181659;28;20745;-52
2022/08/01 08:56:34;;;;;;;5.25;2.33;;;;;;;23.89;38.10;94461.72;4175284;28;20071;-55
2022/08/01 08:58:37;;;;;;;3.92;2.45;;;;;;;24.15;38.24;94473.53;4175938;28;20056;-55
2022/08/01 09:00:40;;;;;;;3.65;2.22;;;;;;;24.04;36.41;94480.63;4151687;28;20465;-51
2022/08/01 09:02:46;;;;;;;6.82;2.53;;;;;;;23.71;37.06;94474.28;4169885;28;20087;-52
2022/08/01 09:04:50;;;;;;;9.00;2.75;;;;;;;23.95;37.23;94470.63;4175237;28;20472;-54
2022/08/01 09:06:52;;;;;;;3.40;2.42;;;;;;;23.90;37.60;94482.06;4173185;28;20075;-50
2022/08/01 09:08:53;;;;;;;3.63;2.20;;;;;;;24.06;36.63;94467.81;4169634;28;20067;-53
2022/08/01 09:10:55;;;;;;;3.30;2.42;;;;;;;23.77;36.51;94479.72;4171737;28;20045;-49
2022/08/01 09:13:05;;;;;;;4.22;2.58;;;;;;;23.70;37.27;94475.38;4178491;28;20060;-52
2022/08/01 09:15:07;;;;;;;4.18;2.90;;;;;;;23.74;37.34;94478.34;4174813;28;20103;-51
2022/08/01 09:17:12;;;;;;;10.50;2.90;;;;;;;23.59;37.47;94460.22;4188216;28;20053;-54
2022/08/01 09:19:17;;;;;;;9.18;2.72;;;;;;;23.62;37.91;94457.06;4173384;28;20060;-47
2022/08/01 09:21:40;;;;;;;5.22;2.70;;;;;;;24.05;38.09;94444.00;4176950;28;20088;-48
2022/08/01 09:23:45;;;;;;;3.63;2.10;;;;;;;24.06;35.82;94451.75;4167696;28;20102;-48
2022/08/01 09:25:56;;;;;;;9.45;2.15;;;;;;;24.22;36.56;94462.66;4177379;28;20318;-49
2022/08/01 09:28:05;;;;;;;3.53;2.10;;;;;;;24.03;36.36;94464.84;4171090;28;20076;-48
2022/08/01 09:30:13;;;;;;;3.30;2.03;;;;;;;24.27;37.00;94446.66;4177892;28;20060;-48
2022/08/01 09:32:24;;;;;;;4.60;2.60;;;;;;;24.25;36.92;94454.13;4169956;28;20548;-47
2022/08/01 09:34:29;;;;;;;4.27;2.73;;;;;;;24.37;37.47;94457.50;4174523;28;20221;-50
2022/08/01 09:36:51;;;;;;;2.20;1.90;;;;;;;24.62;37.58;94451.59;4172468;28;20057;-49
2022/08/01 09:38:54;;;;;;;3.15;2.20;;;;;;;24.83;36.36;94452.63;4172838;28;20057;-48
2022/08/01 09:40:58;;;;;;;3.65;2.45;;;;;;;24.87;35.42;94448.38;4174231;28;20053;-48
2022/08/01 09:43:12;;;;;;;;;;;;;;;24.55;36.20;94455.56;4180627;28;20118;-48
2022/08/01 09:45:32;;;;;;;3.28;2.42;;;;;;;24.58;37.39;94452.38;4167360;28;19921;-49
2022/08/01 09:47:44;;;;;;;3.55;2.25;;;;;;;24.83;37.12;94447.25;4174461;28;20473;-46
2022/08/01 09:49:54;;;;;;;2.90;2.15;;;;;;;24.92;36.84;94452.97;4173715;28;20118;-45